Main page
METAR-TAF:

METAR-TAF

Airports :

Wiener Neustadt East Airport

Wiener Neustadt, Austria

latitude: 47-50-36N, longitude: 016-15-29E, elevation: 272 m

Current weather observation

The report was made 32 minutes ago, at 11:00 UTC
Wind 9 kt from the Northeast
Temperature
Pressure

METAR: LOAN 151100Z 05009KT 10KM FEW015SC SCT035SC BKN080AC

Time: 12:32 (11:32 UTC)

Forecast

The report was made 3 hours and 32 minutes ago, at 08:00 UTC
Forecast valid from 15 at 09 UTC to 15 at 18 UTC
Wind 13 kt from the South/Southeast
Visibility 10 km or more
Few clouds at a height of 1500 ft
Broken clouds at a height of 3500 ft
Temporary
from 15 at 09 UTC to 15 at 18 UTC
Wind 17 kt from the South
Scattered clouds at a height of 4000 ft

TAF: LOAN 150800Z 1509/1518 16013KT 9999 FEW015 BKN035 TEMPO 1509/1518 18017KT SCT040

Weather observations and forecasts of more than 4000 airports (METAR and TAF reports).

The available stations are represented by yellow and red dots on the map.

Hover mouse over dot to see the name of the station.

Then click to see weather observations and forecasts.

To change the map : click on the green buttons with a black cross to zoom in, on the green button with a dash to zoom out, or on the green arrows for adjacent maps.


METAR-TAF: